createdAt,value
2022-08-26T00:00:44.364Z,32.40
2022-08-26T00:03:11.856Z,32.44
2022-08-26T00:05:38.732Z,32.42
2022-08-26T00:08:05.133Z,32.42
2022-08-26T00:10:31.550Z,32.44
2022-08-26T00:12:57.990Z,32.95
2022-08-26T00:15:24.392Z,32.66
2022-08-26T00:17:50.772Z,32.48
2022-08-26T00:20:17.212Z,32.42
2022-08-26T00:22:43.639Z,32.40
2022-08-26T00:25:10.100Z,32.36
2022-08-26T00:27:36.581Z,32.38
2022-08-26T00:30:02.967Z,32.37
2022-08-26T00:32:29.343Z,32.40
2022-08-26T00:34:55.789Z,32.34
2022-08-26T00:37:22.174Z,32.35
2022-08-26T00:39:48.763Z,32.37
2022-08-26T00:42:15.461Z,32.32
2022-08-26T00:44:42.270Z,32.33
2022-08-26T00:47:08.648Z,32.34
2022-08-26T00:49:35.064Z,32.35
2022-08-26T00:52:01.503Z,32.33
2022-08-26T00:54:27.928Z,32.33
2022-08-26T00:56:54.768Z,32.89
2022-08-26T00:59:21.198Z,32.58
2022-08-26T01:01:47.761Z,32.41
2022-08-26T01:04:16.129Z,32.33
2022-08-26T01:06:42.565Z,32.29
2022-08-26T01:09:10.819Z,32.31
2022-08-26T01:11:37.405Z,32.31
2022-08-26T01:14:03.795Z,32.26
2022-08-26T01:16:30.243Z,32.29
2022-08-26T01:18:56.808Z,32.29
2022-08-26T01:21:23.209Z,32.25
2022-08-26T01:23:50.911Z,32.20
2022-08-26T01:26:19.737Z,32.18
2022-08-26T01:28:46.667Z,32.14
2022-08-26T01:31:17.937Z,32.14
2022-08-26T01:33:44.421Z,32.12
2022-08-26T01:36:11.436Z,32.65
2022-08-26T01:38:37.901Z,32.25
2022-08-26T01:41:04.305Z,32.19
2022-08-26T01:43:42.801Z,32.17
2022-08-26T01:46:09.325Z,32.17
2022-08-26T01:48:36.814Z,32.07
2022-08-26T01:51:03.368Z,32.07
2022-08-26T01:53:29.794Z,32.06
2022-08-26T01:55:56.306Z,32.09
2022-08-26T01:58:22.875Z,32.03
2022-08-26T02:00:49.291Z,31.97
2022-08-26T02:03:17.206Z,32.01
2022-08-26T02:05:43.817Z,31.97
2022-08-26T02:08:10.208Z,32.00
2022-08-26T02:10:36.614Z,31.95
2022-08-26T02:13:03.166Z,32.23
2022-08-26T02:15:29.589Z,32.34
2022-08-26T02:17:55.993Z,31.96
2022-08-26T02:20:24.326Z,31.89
2022-08-26T02:22:52.218Z,31.92
2022-08-26T02:25:18.612Z,31.89
2022-08-26T02:27:45.138Z,31.91
2022-08-26T02:30:11.576Z,31.92
2022-08-26T02:32:38.018Z,31.94
2022-08-26T02:35:06.861Z,31.89
2022-08-26T02:37:33.276Z,31.91
2022-08-26T02:40:00.476Z,31.96
2022-08-26T02:42:26.934Z,31.89
2022-08-26T02:44:53.343Z,31.83
2022-08-26T02:47:19.748Z,31.85
2022-08-26T02:49:51.276Z,32.26
2022-08-26T02:52:17.662Z,32.06
2022-08-26T02:54:44.510Z,31.97
2022-08-26T02:57:12.013Z,31.93
2022-08-26T02:59:38.408Z,31.90
2022-08-26T03:02:04.872Z,31.88
2022-08-26T03:04:33.381Z,31.80
2022-08-26T03:06:59.924Z,31.76
2022-08-26T03:09:26.908Z,31.77
2022-08-26T03:11:53.479Z,31.82
2022-08-26T03:14:22.314Z,31.74
2022-08-26T03:16:49.558Z,31.77
2022-08-26T03:19:17.701Z,31.79
2022-08-26T03:21:44.278Z,31.71
2022-08-26T03:24:13.687Z,31.68
2022-08-26T03:26:40.173Z,32.09
2022-08-26T03:29:18.822Z,31.94
2022-08-26T03:31:46.896Z,31.75
2022-08-26T03:34:15.867Z,31.75
2022-08-26T03:36:42.264Z,31.73
2022-08-26T03:39:09.630Z,31.67
2022-08-26T03:41:36.010Z,31.68
2022-08-26T03:44:02.417Z,31.71
2022-08-26T03:46:30.007Z,31.73
2022-08-26T03:48:56.405Z,31.69
2022-08-26T03:51:22.788Z,31.68
2022-08-26T03:53:50.726Z,31.67
2022-08-26T03:56:17.173Z,31.70
2022-08-26T03:58:43.762Z,31.61
2022-08-26T04:01:10.182Z,31.71
2022-08-26T04:03:36.586Z,32.21
2022-08-26T04:06:03.797Z,31.79
2022-08-26T04:08:30.400Z,31.68
2022-08-26T04:10:56.790Z,31.69
2022-08-26T04:13:24.049Z,31.69
2022-08-26T04:15:51.188Z,31.67
2022-08-26T04:18:17.647Z,31.70
2022-08-26T04:20:44.355Z,31.66
2022-08-26T04:23:10.829Z,31.67
2022-08-26T04:25:37.219Z,31.67
2022-08-26T04:28:07.085Z,31.63
2022-08-26T04:30:33.524Z,31.62
2022-08-26T04:32:59.933Z,31.58
2022-08-26T04:35:27.723Z,31.80
2022-08-26T04:37:55.983Z,31.99
2022-08-26T04:40:22.429Z,31.63
2022-08-26T04:42:48.847Z,31.54
2022-08-26T04:45:15.690Z,31.49
2022-08-26T04:47:43.901Z,31.52
2022-08-26T04:50:10.988Z,31.51
2022-08-26T04:52:37.535Z,31.47
2022-08-26T04:55:03.944Z,31.50
2022-08-26T04:57:32.991Z,31.50
2022-08-26T04:59:59.442Z,31.52
2022-08-26T05:02:25.828Z,31.53
2022-08-26T05:04:53.378Z,31.56
2022-08-26T05:07:19.806Z,31.49
2022-08-26T05:09:46.187Z,31.93
2022-08-26T05:12:12.676Z,31.69
2022-08-26T05:14:39.499Z,31.53
2022-08-26T05:17:05.906Z,31.46
2022-08-26T05:19:33.173Z,31.46
2022-08-26T05:21:59.625Z,31.49
2022-08-26T05:24:26.011Z,31.48
2022-08-26T05:26:53.714Z,31.44
2022-08-26T05:29:20.167Z,31.42
2022-08-26T05:31:46.630Z,31.48
2022-08-26T05:34:14.009Z,31.47
2022-08-26T05:36:40.620Z,31.42
2022-08-26T05:39:07.009Z,31.42
2022-08-26T05:41:34.295Z,31.57
2022-08-26T05:44:02.973Z,32.03
2022-08-26T05:46:29.430Z,31.54
2022-08-26T05:48:55.894Z,31.53
2022-08-26T05:51:25.974Z,31.52
2022-08-26T05:53:54.599Z,31.55
2022-08-26T05:56:21.345Z,31.54
2022-08-26T05:58:48.834Z,31.47
2022-08-26T06:01:15.926Z,31.43
2022-08-26T06:03:42.858Z,31.41
2022-08-26T06:06:09.816Z,31.36
2022-08-26T06:08:37.066Z,31.37
2022-08-26T06:11:06.055Z,31.34
2022-08-26T06:13:32.553Z,31.64
2022-08-26T06:15:59.204Z,31.53
2022-08-26T06:18:25.697Z,31.35
2022-08-26T06:20:57.830Z,31.35
2022-08-26T06:23:24.810Z,31.31
2022-08-26T06:25:51.313Z,31.31
2022-08-26T06:28:18.599Z,31.30
2022-08-26T06:30:45.033Z,31.31
2022-08-26T06:33:11.791Z,31.30
2022-08-26T06:35:38.828Z,31.27
2022-08-26T06:38:05.215Z,31.31
2022-08-26T06:40:33.036Z,31.32
2022-08-26T06:42:59.522Z,31.60
2022-08-26T06:45:25.944Z,31.50
2022-08-26T06:47:52.933Z,31.33
2022-08-26T06:50:19.374Z,31.30
2022-08-26T06:52:45.794Z,31.27
2022-08-26T06:55:13.076Z,31.28
2022-08-26T06:57:39.822Z,31.27
2022-08-26T07:00:10.724Z,31.29
2022-08-26T07:02:37.417Z,31.28
2022-08-26T07:05:04.202Z,31.26
2022-08-26T07:07:31.011Z,31.29
2022-08-26T07:09:57.469Z,31.29
2022-08-26T07:12:23.906Z,31.55
2022-08-26T07:14:52.075Z,31.44
2022-08-26T07:17:20.396Z,31.30
2022-08-26T07:19:47.199Z,31.29
2022-08-26T07:22:13.798Z,31.28
2022-08-26T07:24:40.430Z,31.28
2022-08-26T07:27:09.014Z,31.32
2022-08-26T07:29:35.418Z,31.34
2022-08-26T07:32:02.091Z,31.34
2022-08-26T07:34:29.266Z,31.28
2022-08-26T07:36:55.975Z,31.27
2022-08-26T07:39:24.128Z,31.25
2022-08-26T07:41:51.045Z,31.54
2022-08-26T07:44:17.664Z,31.47
2022-08-26T07:46:44.252Z,31.30
2022-08-26T07:49:19.605Z,31.32
2022-08-26T07:51:46.190Z,31.32
2022-08-26T07:54:12.957Z,31.29
2022-08-26T07:56:39.544Z,31.31
2022-08-26T07:59:13.558Z,31.30
2022-08-26T08:01:44.784Z,31.33
2022-08-26T08:04:12.847Z,31.35
2022-08-26T08:06:40.306Z,31.34
2022-08-26T08:09:07.252Z,31.39
2022-08-26T08:11:33.828Z,31.58
2022-08-26T08:14:01.571Z,31.49
2022-08-26T08:16:28.419Z,31.42
2022-08-26T08:18:58.822Z,31.42
2022-08-26T08:21:25.561Z,31.42
2022-08-26T08:23:52.166Z,31.41
2022-08-26T08:26:18.897Z,31.44
2022-08-26T08:28:45.397Z,31.44
2022-08-26T08:31:14.695Z,31.43
2022-08-26T08:33:41.209Z,31.45
2022-08-26T08:36:09.340Z,31.48
2022-08-26T08:38:35.913Z,31.47
2022-08-26T08:41:02.488Z,31.64
2022-08-26T08:43:32.260Z,31.70
2022-08-26T08:46:04.568Z,31.51
2022-08-26T08:48:31.022Z,31.49
2022-08-26T08:50:57.527Z,31.48
2022-08-26T08:53:24.154Z,31.49
2022-08-26T08:55:50.625Z,31.50
2022-08-26T08:58:17.196Z,31.50
2022-08-26T09:00:46.204Z,31.51
2022-08-26T09:03:13.609Z,31.54
2022-08-26T09:05:40.065Z,31.56
2022-08-26T09:08:07.877Z,31.61
2022-08-26T09:10:37.853Z,31.61
2022-08-26T09:13:04.218Z,31.98
2022-08-26T09:15:31.006Z,31.64
2022-08-26T09:17:57.445Z,31.57
2022-08-26T09:20:24.031Z,31.55
2022-08-26T09:22:50.457Z,31.52
2022-08-26T09:25:17.279Z,31.52
2022-08-26T09:27:45.118Z,31.50
2022-08-26T09:30:11.644Z,31.50
2022-08-26T09:32:38.367Z,31.51
2022-08-26T09:35:06.239Z,31.52
2022-08-26T09:37:32.888Z,31.51
2022-08-26T09:39:59.391Z,31.52
2022-08-26T09:42:25.776Z,31.81
2022-08-26T09:44:52.467Z,31.66
2022-08-26T09:47:18.904Z,31.53
2022-08-26T09:49:45.324Z,31.52
2022-08-26T09:52:12.609Z,31.57
2022-08-26T09:54:38.996Z,31.58
2022-08-26T09:57:05.376Z,31.54
2022-08-26T09:59:31.950Z,31.54
2022-08-26T10:01:58.721Z,31.52
2022-08-26T10:04:25.194Z,31.51
2022-08-26T10:06:53.422Z,31.51
2022-08-26T10:09:19.851Z,31.51
2022-08-26T10:11:47.178Z,31.66
2022-08-26T10:14:14.322Z,31.78
2022-08-26T10:16:41.641Z,31.52
2022-08-26T10:19:08.107Z,31.47
2022-08-26T10:21:35.320Z,31.47
2022-08-26T10:24:01.823Z,31.48
2022-08-26T10:26:28.271Z,31.46
2022-08-26T10:28:54.703Z,31.46
2022-08-26T10:31:21.211Z,31.47
2022-08-26T10:33:58.011Z,31.46
2022-08-26T10:36:25.236Z,31.46
2022-08-26T10:38:53.715Z,31.52
2022-08-26T10:41:20.448Z,31.58
2022-08-26T10:43:47.374Z,31.96
2022-08-26T10:46:14.270Z,31.57
2022-08-26T10:48:40.981Z,31.49
2022-08-26T10:51:08.594Z,31.46
2022-08-26T10:53:35.192Z,31.44
2022-08-26T10:56:03.551Z,31.44
2022-08-26T10:58:30.838Z,31.43
2022-08-26T11:00:58.352Z,31.44
2022-08-26T11:03:25.608Z,31.45
2022-08-26T11:05:54.135Z,31.45
2022-08-26T11:08:21.062Z,31.43
2022-08-26T11:10:47.589Z,31.46
2022-08-26T11:13:15.537Z,31.84
2022-08-26T11:15:44.035Z,31.49
2022-08-26T11:18:11.232Z,31.42
2022-08-26T11:20:41.565Z,31.39
2022-08-26T11:23:08.436Z,31.38
2022-08-26T11:25:34.855Z,31.37
2022-08-26T11:28:01.321Z,31.42
2022-08-26T11:30:30.601Z,31.45
2022-08-26T11:32:57.315Z,31.43
2022-08-26T11:35:23.896Z,31.43
2022-08-26T11:37:53.147Z,31.41
2022-08-26T11:40:19.895Z,31.42
2022-08-26T11:42:46.435Z,31.77
2022-08-26T11:45:13.067Z,31.52
2022-08-26T11:47:39.467Z,31.42
2022-08-26T11:50:07.493Z,31.41
2022-08-26T11:52:33.898Z,31.38
2022-08-26T11:55:00.306Z,31.38
2022-08-26T11:57:26.803Z,31.42
2022-08-26T11:59:53.515Z,31.43
2022-08-26T12:02:19.922Z,31.43
2022-08-26T12:04:47.773Z,31.44
2022-08-26T12:07:14.187Z,31.46
2022-08-26T12:09:40.579Z,31.46
2022-08-26T12:12:07.714Z,31.67
2022-08-26T12:14:39.626Z,31.70
2022-08-26T12:17:06.189Z,31.55
2022-08-26T12:19:36.321Z,31.52
2022-08-26T12:22:05.602Z,31.51
2022-08-26T12:24:34.287Z,31.54
2022-08-26T12:27:00.738Z,31.53
2022-08-26T12:29:28.971Z,31.54
2022-08-26T12:31:55.372Z,31.54
2022-08-26T12:34:23.759Z,31.56
2022-08-26T12:36:50.239Z,31.58
2022-08-26T12:39:20.568Z,31.59
2022-08-26T12:41:47.079Z,31.72
2022-08-26T12:44:16.251Z,31.87
2022-08-26T12:46:45.624Z,31.62
2022-08-26T12:49:14.328Z,31.59
2022-08-26T12:51:40.731Z,31.60
2022-08-26T12:54:07.389Z,31.59
2022-08-26T12:56:33.871Z,31.59
2022-08-26T12:59:00.335Z,31.59
2022-08-26T13:01:26.852Z,31.60
2022-08-26T13:03:53.570Z,31.67
2022-08-26T13:06:19.964Z,31.70
2022-08-26T13:08:46.361Z,31.70
2022-08-26T13:11:15.788Z,31.70
2022-08-26T13:13:43.530Z,32.09
2022-08-26T13:16:10.462Z,31.79
2022-08-26T13:18:37.178Z,31.71
2022-08-26T13:21:03.650Z,31.70
2022-08-26T13:23:30.023Z,31.67
2022-08-26T13:25:58.206Z,31.67
2022-08-26T13:28:24.632Z,31.65
2022-08-26T13:30:51.038Z,31.64
2022-08-26T13:33:17.585Z,31.65
2022-08-26T13:35:44.733Z,31.61
2022-08-26T13:38:11.120Z,31.65
2022-08-26T13:40:44.950Z,31.63
2022-08-26T13:43:11.464Z,31.82
2022-08-26T13:45:37.942Z,31.84
2022-08-26T13:48:08.655Z,31.62
2022-08-26T13:50:35.127Z,31.61
2022-08-26T13:53:01.667Z,31.62
2022-08-26T13:55:28.393Z,31.61
2022-08-26T13:57:54.775Z,31.58
2022-08-26T14:00:21.164Z,31.60
2022-08-26T14:02:47.648Z,31.60
2022-08-26T14:05:14.038Z,31.59
2022-08-26T14:07:40.420Z,31.58
2022-08-26T14:10:07.087Z,31.57
2022-08-26T14:12:33.561Z,31.71
2022-08-26T14:14:59.961Z,31.88
2022-08-26T14:17:26.715Z,31.60
2022-08-26T14:19:57.532Z,31.57
2022-08-26T14:22:23.914Z,31.57
2022-08-26T14:24:50.374Z,31.57
2022-08-26T14:27:16.857Z,31.55
2022-08-26T14:29:45.993Z,31.56
2022-08-26T14:32:12.861Z,31.56
2022-08-26T14:34:39.230Z,31.56
2022-08-26T14:37:07.688Z,31.55
2022-08-26T14:39:35.220Z,31.61
2022-08-26T14:42:02.700Z,31.64
2022-08-26T14:44:31.192Z,32.04
2022-08-26T14:46:57.774Z,31.70
2022-08-26T14:49:24.258Z,31.64
2022-08-26T14:51:50.653Z,31.59
2022-08-26T14:54:20.286Z,31.58
2022-08-26T14:56:46.675Z,31.58
2022-08-26T14:59:13.216Z,31.58
2022-08-26T15:01:39.729Z,31.60
2022-08-26T15:04:06.176Z,31.60
2022-08-26T15:06:32.586Z,31.59
2022-08-26T15:08:59.014Z,31.58
2022-08-26T15:11:25.387Z,31.58
2022-08-26T15:13:52.182Z,31.82
2022-08-26T15:16:18.877Z,31.77
2022-08-26T15:18:45.339Z,31.62
2022-08-26T15:21:11.817Z,31.58
2022-08-26T15:23:38.440Z,31.57
2022-08-26T15:26:04.846Z,31.55
2022-08-26T15:28:31.272Z,31.63
2022-08-26T15:30:58.261Z,31.63
2022-08-26T15:33:24.736Z,31.63
2022-08-26T15:35:51.193Z,31.61
2022-08-26T15:38:18.216Z,31.64
2022-08-26T15:40:44.606Z,31.64
2022-08-26T15:43:27.943Z,31.65
2022-08-26T15:45:55.131Z,32.08
2022-08-26T15:48:21.865Z,31.70
2022-08-26T15:50:48.345Z,31.64
2022-08-26T15:53:14.813Z,31.62
2022-08-26T15:55:41.197Z,31.62
2022-08-26T15:58:07.798Z,31.65
2022-08-26T16:00:35.060Z,31.64
2022-08-26T16:03:01.453Z,31.64
2022-08-26T16:05:28.303Z,31.63
2022-08-26T16:07:54.765Z,31.67
2022-08-26T16:10:21.214Z,31.66
2022-08-26T16:12:48.022Z,31.66
2022-08-26T16:15:14.513Z,31.83
2022-08-26T16:17:40.913Z,31.91
2022-08-26T16:20:07.404Z,31.71
2022-08-26T16:22:33.851Z,31.69
2022-08-26T16:25:00.270Z,31.68
2022-08-26T16:27:26.661Z,31.67
2022-08-26T16:29:53.268Z,31.62
2022-08-26T16:32:19.691Z,31.59
2022-08-26T16:34:56.706Z,31.67
2022-08-26T16:37:26.345Z,31.67
2022-08-26T16:39:55.804Z,31.66
2022-08-26T16:42:22.290Z,31.65
2022-08-26T16:44:48.751Z,31.64
2022-08-26T16:47:15.153Z,31.62
2022-08-26T16:49:42.639Z,31.62
2022-08-26T16:52:09.113Z,32.06
2022-08-26T16:54:37.774Z,31.91
2022-08-26T16:57:04.509Z,31.79
2022-08-26T16:59:30.928Z,31.78
2022-08-26T17:01:57.571Z,31.76
2022-08-26T17:04:26.622Z,31.77
2022-08-26T17:06:53.198Z,31.80
2022-08-26T17:09:19.750Z,31.83
2022-08-26T17:11:46.131Z,31.82
2022-08-26T17:14:12.768Z,31.81
2022-08-26T17:16:39.152Z,31.80
2022-08-26T17:19:05.552Z,31.79
2022-08-26T17:21:32.018Z,31.73
2022-08-26T17:23:58.450Z,31.72
2022-08-26T17:26:24.833Z,32.13
2022-08-26T17:28:51.281Z,31.97
2022-08-26T17:31:18.034Z,31.83
2022-08-26T17:33:47.630Z,31.80
2022-08-26T17:36:15.384Z,31.83
2022-08-26T17:38:41.819Z,31.70
2022-08-26T17:41:11.078Z,31.75
2022-08-26T17:43:39.582Z,31.75
2022-08-26T17:46:07.130Z,31.76
2022-08-26T17:48:33.996Z,31.77
2022-08-26T17:51:00.564Z,31.74
2022-08-26T17:53:27.077Z,31.69
2022-08-26T17:55:53.573Z,31.68
2022-08-26T17:58:21.491Z,31.74
2022-08-26T18:00:49.171Z,31.71
2022-08-26T18:03:15.566Z,31.82
2022-08-26T18:05:42.144Z,32.42
2022-08-26T18:08:11.784Z,32.04
2022-08-26T18:10:38.296Z,31.92
2022-08-26T18:13:04.719Z,31.98
2022-08-26T18:15:31.173Z,31.92
2022-08-26T18:17:57.762Z,31.93
2022-08-26T18:20:24.189Z,31.92
2022-08-26T18:22:50.590Z,31.91
2022-08-26T18:25:18.451Z,31.91
2022-08-26T18:27:44.870Z,31.96
2022-08-26T18:30:15.858Z,31.92
2022-08-26T18:32:43.044Z,31.94
2022-08-26T18:35:09.621Z,31.95
2022-08-26T18:37:36.010Z,31.95
2022-08-26T18:40:02.527Z,31.95
2022-08-26T18:42:30.472Z,31.97
2022-08-26T18:44:56.955Z,31.98
2022-08-26T18:47:23.372Z,32.55
2022-08-26T18:49:49.928Z,32.20
2022-08-26T18:52:16.331Z,32.11
2022-08-26T18:54:43.510Z,32.05
2022-08-26T18:57:11.180Z,32.08
2022-08-26T18:59:37.752Z,32.12
2022-08-26T19:02:04.239Z,32.20
2022-08-26T19:04:33.114Z,32.21
2022-08-26T19:06:59.496Z,32.23
2022-08-26T19:09:25.869Z,32.22
2022-08-26T19:11:52.688Z,32.25
2022-08-26T19:14:19.144Z,32.20
2022-08-26T19:16:45.656Z,32.20
2022-08-26T19:19:12.370Z,32.20
2022-08-26T19:21:39.001Z,32.21
2022-08-26T19:24:05.393Z,32.21
2022-08-26T19:26:31.942Z,32.21
2022-08-26T19:28:58.405Z,32.55
2022-08-26T19:31:24.869Z,32.65
2022-08-26T19:33:51.389Z,32.31
2022-08-26T19:36:20.776Z,32.26
2022-08-26T19:38:47.224Z,32.25
2022-08-26T19:41:13.692Z,32.29
2022-08-26T19:43:40.072Z,32.26
2022-08-26T19:46:09.547Z,32.26
2022-08-26T19:48:36.006Z,32.27
2022-08-26T19:51:04.565Z,32.29
2022-08-26T19:53:30.968Z,32.27
2022-08-26T19:55:57.500Z,32.28
2022-08-26T19:58:23.962Z,32.26
2022-08-26T20:00:50.408Z,32.27
2022-08-26T20:03:16.952Z,32.27
2022-08-26T20:05:43.439Z,32.32
2022-08-26T20:08:11.695Z,32.35
2022-08-26T20:10:48.793Z,32.35
2022-08-26T20:13:15.162Z,32.39
2022-08-26T20:15:42.052Z,32.93
2022-08-26T20:18:09.234Z,32.48
2022-08-26T20:20:35.644Z,32.38
2022-08-26T20:23:02.418Z,32.33
2022-08-26T20:25:28.871Z,32.37
2022-08-26T20:27:55.291Z,32.32
2022-08-26T20:30:23.302Z,32.30
2022-08-26T20:32:49.729Z,32.31
2022-08-26T20:35:16.133Z,32.31
2022-08-26T20:37:42.611Z,32.32
2022-08-26T20:40:09.141Z,32.31
2022-08-26T20:42:35.561Z,32.31
2022-08-26T20:45:02.185Z,32.32
2022-08-26T20:47:28.638Z,32.31
2022-08-26T20:49:55.636Z,32.31
2022-08-26T20:52:22.109Z,32.32
2022-08-26T20:54:48.538Z,32.31
2022-08-26T20:57:14.956Z,32.32
2022-08-26T20:59:41.372Z,32.90
2022-08-26T21:02:08.030Z,32.53
2022-08-26T21:04:34.461Z,32.35
2022-08-26T21:07:00.904Z,32.39
2022-08-26T21:09:27.711Z,32.40
2022-08-26T21:11:55.812Z,32.42
2022-08-26T21:14:25.819Z,32.38
2022-08-26T21:16:53.099Z,32.37
2022-08-26T21:19:19.649Z,32.34
2022-08-26T21:21:46.067Z,32.34
2022-08-26T21:24:14.864Z,32.35
2022-08-26T21:26:41.344Z,32.34
2022-08-26T21:29:08.131Z,32.34
2022-08-26T21:31:34.597Z,32.34
2022-08-26T21:34:01.019Z,32.35
2022-08-26T21:36:27.708Z,32.34
2022-08-26T21:38:54.303Z,32.38
2022-08-26T21:41:20.722Z,32.38
2022-08-26T21:43:48.878Z,32.90
2022-08-26T21:46:15.334Z,32.65
2022-08-26T21:48:41.770Z,32.43
2022-08-26T21:51:08.211Z,32.42
2022-08-26T21:53:34.652Z,32.37
2022-08-26T21:56:01.037Z,32.35
2022-08-26T21:58:27.491Z,32.34
2022-08-26T22:00:54.052Z,32.35
2022-08-26T22:03:20.480Z,32.36
2022-08-26T22:05:48.929Z,32.38
2022-08-26T22:08:15.411Z,32.44
2022-08-26T22:10:45.642Z,32.45
2022-08-26T22:13:12.311Z,32.44
2022-08-26T22:15:42.034Z,32.42
2022-08-26T22:18:08.768Z,32.40
2022-08-26T22:20:35.260Z,32.41
2022-08-26T22:23:02.054Z,32.40
2022-08-26T22:25:28.551Z,32.37
2022-08-26T22:27:54.936Z,32.74
2022-08-26T22:30:21.381Z,32.84
2022-08-26T22:32:48.262Z,32.47
2022-08-26T22:35:28.842Z,32.44
2022-08-26T22:38:05.245Z,32.41
2022-08-26T22:40:31.718Z,32.40
2022-08-26T22:43:00.234Z,32.40
2022-08-26T22:45:28.896Z,32.41
2022-08-26T22:47:55.294Z,32.40
2022-08-26T22:50:21.801Z,32.42
2022-08-26T22:52:48.354Z,32.40
2022-08-26T22:55:14.739Z,32.39
2022-08-26T22:57:41.246Z,32.41
2022-08-26T23:00:07.648Z,32.39
2022-08-26T23:02:37.619Z,32.38
2022-08-26T23:05:04.060Z,32.41
2022-08-26T23:07:30.442Z,32.45
2022-08-26T23:09:56.878Z,32.45
2022-08-26T23:12:23.405Z,32.90
2022-08-26T23:14:49.808Z,32.81
2022-08-26T23:17:16.180Z,32.48
2022-08-26T23:19:42.710Z,32.46
2022-08-26T23:22:09.098Z,32.43
2022-08-26T23:24:35.487Z,32.44
2022-08-26T23:27:01.955Z,32.45
2022-08-26T23:29:28.340Z,32.44
2022-08-26T23:31:55.193Z,32.43
2022-08-26T23:34:21.702Z,32.44
2022-08-26T23:36:48.474Z,32.41
2022-08-26T23:39:14.891Z,32.40
2022-08-26T23:41:41.324Z,32.40
2022-08-26T23:44:07.699Z,32.41
2022-08-26T23:46:34.074Z,32.42
2022-08-26T23:49:00.520Z,32.41
2022-08-26T23:51:26.939Z,32.40
2022-08-26T23:53:53.319Z,32.43
2022-08-26T23:56:19.728Z,32.86
2022-08-26T23:58:47.089Z,32.75
